createdAt,value
2023-09-13T00:01:58.863Z,8.47
2023-09-13T00:04:25.717Z,7.67
2023-09-13T00:06:52.627Z,8.80
2023-09-13T00:09:19.558Z,8.40
2023-09-13T00:11:46.309Z,8.70
2023-09-13T00:14:13.093Z,7.73
2023-09-13T00:16:40.335Z,7.90
2023-09-13T00:19:07.936Z,8.20
2023-09-13T00:21:34.749Z,7.70
2023-09-13T00:24:01.496Z,7.87
2023-09-13T00:26:28.506Z,8.80
2023-09-13T00:28:55.839Z,7.97
2023-09-13T00:31:22.664Z,8.60
2023-09-13T00:33:49.547Z,7.80
2023-09-13T00:36:16.281Z,8.07
2023-09-13T00:38:43.088Z,8.10
2023-09-13T00:41:09.760Z,7.50
2023-09-13T00:43:36.578Z,8.10
2023-09-13T00:46:03.844Z,7.87
2023-09-13T00:48:30.859Z,7.67
2023-09-13T00:50:59.347Z,8.17
2023-09-13T00:53:27.149Z,7.50
2023-09-13T00:56:03.680Z,8.10
2023-09-13T00:58:31.502Z,7.40
2023-09-13T01:00:58.291Z,7.53
2023-09-13T01:03:25.305Z,7.90
2023-09-13T01:05:56.034Z,7.47
2023-09-13T01:08:23.326Z,7.97
2023-09-13T01:10:50.192Z,8.33
2023-09-13T01:13:16.946Z,8.07
2023-09-13T01:15:49.037Z,7.83
2023-09-13T01:18:22.318Z,7.83
2023-09-13T01:20:52.124Z,7.87
2023-09-13T01:23:38.988Z,8.23
2023-09-13T01:26:24.407Z,7.63
2023-09-13T01:28:51.704Z,8.33
2023-09-13T01:31:18.955Z,8.20
2023-09-13T01:33:46.284Z,8.00
2023-09-13T01:36:13.671Z,7.93
2023-09-13T01:38:41.051Z,9.10
2023-09-13T01:41:20.148Z,8.80
2023-09-13T01:43:47.426Z,8.23
2023-09-13T01:46:14.462Z,7.93
2023-09-13T01:48:41.827Z,7.83
2023-09-13T01:51:09.929Z,8.27
2023-09-13T01:53:46.317Z,8.23
2023-09-13T01:56:13.387Z,8.10
2023-09-13T01:58:40.108Z,8.17
2023-09-13T02:01:13.055Z,8.03
2023-09-13T02:03:40.144Z,8.40
2023-09-13T02:06:06.932Z,8.40
2023-09-13T02:08:33.642Z,8.40
2023-09-13T02:11:00.392Z,7.57
2023-09-13T02:13:30.307Z,7.87
2023-09-13T02:15:57.184Z,7.47
2023-09-13T02:18:23.975Z,8.17
2023-09-13T02:20:50.698Z,8.27
2023-09-13T02:23:17.460Z,8.03
2023-09-13T02:25:47.040Z,7.90
2023-09-13T02:28:14.138Z,8.03
2023-09-13T02:30:41.467Z,8.40
2023-09-13T02:33:08.285Z,7.73
2023-09-13T02:35:35.442Z,8.07
2023-09-13T02:38:02.582Z,7.90
2023-09-13T02:40:29.322Z,8.00
2023-09-13T02:42:56.048Z,7.93
2023-09-13T02:45:22.797Z,7.63
2023-09-13T02:47:49.563Z,7.50
2023-09-13T02:50:16.953Z,7.77
2023-09-13T02:52:44.206Z,8.20
2023-09-13T02:55:11.002Z,8.00
2023-09-13T02:57:37.736Z,7.67
2023-09-13T03:00:06.931Z,7.87
2023-09-13T03:02:37.829Z,7.70
2023-09-13T03:05:06.480Z,8.03
2023-09-13T03:07:33.468Z,7.57
2023-09-13T03:10:00.443Z,7.83
2023-09-13T03:12:27.817Z,8.10
2023-09-13T03:14:55.638Z,7.77
2023-09-13T03:17:22.324Z,7.30
2023-09-13T03:19:49.314Z,7.93
2023-09-13T03:22:20.200Z,7.60
2023-09-13T03:24:49.414Z,7.10
2023-09-13T03:27:16.488Z,7.90
2023-09-13T03:29:43.323Z,7.47
2023-09-13T03:32:10.700Z,7.37
2023-09-13T03:34:38.828Z,7.70
2023-09-13T03:37:06.098Z,7.80
2023-09-13T03:39:33.037Z,7.00
2023-09-13T03:42:00.362Z,7.33
2023-09-13T03:44:28.156Z,7.50
2023-09-13T03:46:57.146Z,6.63
2023-09-13T03:49:24.116Z,7.50
2023-09-13T03:51:50.901Z,7.63
2023-09-13T03:54:17.933Z,7.00
2023-09-13T03:56:44.628Z,7.33
2023-09-13T03:59:12.033Z,6.97
2023-09-13T04:01:38.876Z,11.77
2023-09-13T04:04:05.683Z,9.73
2023-09-13T04:06:32.735Z,7.67
2023-09-13T04:08:59.505Z,7.03
2023-09-13T04:11:29.701Z,7.93
2023-09-13T04:13:57.086Z,7.20
2023-09-13T04:16:23.922Z,6.80
2023-09-13T04:18:50.736Z,7.13
2023-09-13T04:21:17.865Z,7.23
2023-09-13T04:23:44.895Z,7.93
2023-09-13T04:26:11.764Z,6.97
2023-09-13T04:28:38.496Z,6.93
2023-09-13T04:31:05.286Z,7.10
2023-09-13T04:33:51.341Z,7.60
2023-09-13T04:36:20.641Z,7.60
2023-09-13T04:38:48.660Z,7.07
2023-09-13T04:41:16.088Z,7.30
2023-09-13T04:43:43.662Z,7.20
2023-09-13T04:46:11.028Z,7.30
2023-09-13T04:48:37.918Z,7.70
2023-09-13T04:51:05.676Z,8.27
2023-09-13T04:53:34.189Z,8.37
2023-09-13T04:56:01.863Z,7.70
2023-09-13T04:58:32.727Z,7.77
2023-09-13T05:01:00.870Z,29.13
2023-09-13T05:03:27.750Z,25.37
2023-09-13T05:05:55.959Z,9.30
2023-09-13T05:08:22.676Z,9.30
2023-09-13T05:10:52.643Z,8.13
2023-09-13T05:13:19.431Z,7.80
2023-09-13T05:15:46.221Z,7.37
2023-09-13T05:18:13.172Z,7.07
2023-09-13T05:20:40.012Z,7.13
2023-09-13T05:23:06.853Z,7.37
2023-09-13T05:25:34.401Z,6.73
2023-09-13T05:28:01.670Z,7.43
2023-09-13T05:30:29.562Z,8.30
2023-09-13T05:32:56.253Z,7.30
2023-09-13T05:35:23.292Z,7.97
2023-09-13T05:37:51.412Z,7.57
2023-09-13T05:40:18.381Z,6.17
2023-09-13T05:42:45.143Z,6.37
2023-09-13T05:45:11.802Z,6.90
2023-09-13T05:47:38.548Z,6.97
2023-09-13T05:50:05.537Z,6.53
2023-09-13T05:52:34.223Z,6.13
2023-09-13T05:55:00.999Z,6.27
2023-09-13T05:57:28.477Z,6.30
2023-09-13T05:59:55.200Z,5.97
2023-09-13T06:02:21.974Z,5.93
2023-09-13T06:04:48.696Z,5.70
2023-09-13T06:07:15.416Z,6.07
2023-09-13T06:09:42.153Z,6.27
2023-09-13T06:12:08.945Z,5.80
2023-09-13T06:14:35.886Z,5.70
2023-09-13T06:17:03.200Z,5.10
2023-09-13T06:19:29.931Z,6.10
2023-09-13T06:21:56.723Z,5.50
2023-09-13T06:24:23.422Z,5.00
2023-09-13T06:26:50.142Z,5.30
2023-09-13T06:29:16.900Z,5.00
2023-09-13T06:31:58.109Z,5.63
2023-09-13T06:34:30.955Z,5.23
2023-09-13T06:36:58.769Z,5.30
2023-09-13T06:39:25.742Z,4.87
2023-09-13T06:41:52.602Z,5.10
2023-09-13T06:46:55.851Z,5.03
2023-09-13T06:49:29.231Z,4.77
2023-09-13T06:51:57.739Z,4.50
2023-09-13T06:54:27.709Z,4.70
2023-09-13T06:56:58.655Z,4.57
2023-09-13T06:59:29.030Z,4.63
2023-09-13T07:02:10.826Z,3.83
2023-09-13T07:07:12.954Z,4.05
2023-09-13T07:09:40.911Z,4.35
2023-09-13T07:12:07.682Z,3.85
2023-09-13T07:14:34.361Z,4.43
2023-09-13T07:17:01.163Z,4.40
2023-09-13T07:19:27.993Z,4.40
2023-09-13T07:21:54.839Z,4.00
2023-09-13T07:24:21.548Z,4.20
2023-09-13T07:26:48.241Z,4.60
2023-09-13T07:29:15.010Z,4.43
2023-09-13T07:31:41.800Z,4.57
2023-09-13T07:34:09.268Z,4.37
2023-09-13T07:36:35.999Z,3.90
2023-09-13T07:39:04.460Z,4.30
2023-09-13T07:41:31.250Z,4.00
2023-09-13T07:43:57.951Z,4.67
2023-09-13T07:46:24.695Z,5.03
2023-09-13T07:48:51.404Z,4.33
2023-09-13T07:51:18.118Z,4.23
2023-09-13T07:53:45.110Z,4.27
2023-09-13T07:56:12.050Z,4.07
2023-09-13T07:58:38.890Z,4.40
2023-09-13T08:01:05.673Z,4.20
2023-09-13T08:03:33.843Z,4.17
2023-09-13T08:06:04.045Z,4.20
2023-09-13T08:08:33.834Z,3.93
2023-09-13T08:11:00.546Z,3.90
2023-09-13T08:13:27.326Z,4.07
2023-09-13T08:15:54.101Z,4.07
2023-09-13T08:18:20.914Z,4.23
2023-09-13T08:20:47.788Z,4.20
2023-09-13T08:23:14.869Z,3.73
2023-09-13T08:25:41.882Z,3.90
2023-09-13T08:28:08.635Z,4.00
2023-09-13T08:30:35.536Z,3.40
2023-09-13T08:33:03.090Z,3.10
2023-09-13T08:35:30.090Z,2.93
2023-09-13T08:37:56.859Z,3.20
2023-09-13T08:40:25.255Z,3.10
2023-09-13T08:42:52.975Z,2.73
2023-09-13T08:45:19.773Z,2.33
2023-09-13T08:47:57.989Z,2.60
2023-09-13T08:50:28.252Z,2.90
2023-09-13T08:52:56.159Z,2.87
2023-09-13T08:55:23.473Z,3.10
2023-09-13T08:57:50.885Z,3.10
2023-09-13T09:00:17.720Z,3.13
2023-09-13T09:02:45.302Z,2.67
2023-09-13T09:05:13.538Z,3.10
2023-09-13T09:07:41.724Z,3.03
2023-09-13T09:10:12.537Z,2.70
2023-09-13T09:12:43.852Z,2.50
2023-09-13T09:15:11.541Z,3.30
2023-09-13T09:17:39.078Z,2.80
2023-09-13T09:20:06.141Z,2.90
2023-09-13T09:22:33.308Z,3.10
2023-09-13T09:25:00.458Z,2.83
2023-09-13T09:27:27.135Z,2.60
2023-09-13T09:30:00.783Z,2.70
2023-09-13T09:32:28.844Z,2.60
2023-09-13T09:34:58.410Z,2.50
2023-09-13T09:37:32.052Z,2.70
2023-09-13T09:39:58.934Z,2.97
2023-09-13T09:42:25.891Z,2.87
2023-09-13T09:44:53.179Z,3.00
2023-09-13T09:47:20.972Z,2.80
2023-09-13T09:49:48.520Z,2.97
2023-09-13T09:52:15.916Z,2.97
2023-09-13T09:54:52.160Z,2.83
2023-09-13T09:57:20.098Z,2.93
2023-09-13T09:59:46.778Z,3.20
2023-09-13T10:02:13.905Z,3.17
2023-09-13T10:04:48.710Z,2.90
2023-09-13T10:07:15.588Z,2.87
2023-09-13T10:09:43.019Z,3.27
2023-09-13T10:12:10.570Z,3.40
2023-09-13T10:14:38.537Z,3.63
2023-09-13T10:17:05.806Z,3.27
2023-09-13T10:19:33.271Z,3.00
2023-09-13T10:22:00.059Z,2.60
2023-09-13T10:24:34.055Z,2.63
2023-09-13T10:27:01.665Z,3.23
2023-09-13T10:29:35.083Z,2.80
2023-09-13T10:32:06.370Z,3.17
2023-09-13T10:34:35.254Z,2.93
2023-09-13T10:37:08.036Z,3.10
2023-09-13T10:39:38.041Z,3.00
2023-09-13T10:42:07.201Z,3.00
2023-09-13T10:44:37.626Z,3.47
2023-09-13T10:47:05.185Z,3.37
2023-09-13T10:49:32.027Z,3.03
2023-09-13T10:52:00.038Z,3.60
2023-09-13T10:54:27.237Z,3.37
2023-09-13T10:56:54.044Z,3.47
2023-09-13T10:59:21.320Z,3.30
2023-09-13T11:01:48.302Z,3.70
2023-09-13T11:04:15.718Z,3.30
2023-09-13T11:06:43.692Z,3.43
2023-09-13T11:09:17.770Z,3.00
2023-09-13T11:11:53.134Z,3.10
2023-09-13T11:14:26.964Z,3.90
2023-09-13T11:16:53.901Z,3.50
2023-09-13T11:19:28.193Z,3.50
2023-09-13T11:22:01.233Z,3.37
2023-09-13T11:27:17.762Z,3.63
2023-09-13T11:29:44.617Z,3.20
2023-09-13T11:32:21.269Z,3.57
2023-09-13T11:34:58.040Z,3.20
2023-09-13T11:37:26.085Z,3.17
2023-09-13T11:39:53.296Z,3.30
2023-09-13T11:42:34.300Z,3.90
2023-09-13T11:45:04.505Z,3.23
2023-09-13T11:47:34.899Z,3.00
2023-09-13T11:52:51.758Z,3.77
2023-09-13T11:55:37.598Z,3.27
2023-09-13T11:58:07.989Z,3.40
2023-09-13T12:00:43.121Z,3.60
2023-09-13T12:03:12.431Z,3.27
2023-09-13T12:05:51.468Z,3.60
2023-09-13T12:08:42.269Z,3.70
2023-09-13T12:11:12.787Z,3.80
2023-09-13T12:14:06.848Z,3.37
2023-09-13T12:16:36.200Z,3.93
2023-09-13T12:19:03.080Z,3.90
2023-09-13T12:21:29.779Z,3.83
2023-09-13T12:23:56.570Z,3.73
2023-09-13T12:26:25.192Z,3.70
2023-09-13T12:28:53.725Z,3.70
2023-09-13T12:31:21.365Z,3.47
2023-09-13T12:33:54.897Z,3.27
2023-09-13T12:36:21.794Z,3.70
2023-09-13T12:38:49.702Z,3.80
2023-09-13T12:41:16.775Z,3.77
2023-09-13T12:43:44.101Z,3.80
2023-09-13T12:46:15.304Z,3.93
2023-09-13T12:48:43.536Z,4.77
2023-09-13T12:51:11.042Z,4.87
2023-09-13T12:53:38.155Z,4.83
2023-09-13T12:56:04.938Z,5.20
2023-09-13T12:58:31.795Z,5.20
2023-09-13T13:01:04.264Z,5.03
2023-09-13T13:03:33.396Z,4.63
2023-09-13T13:06:02.316Z,4.90
2023-09-13T13:08:38.985Z,4.97
2023-09-13T13:11:06.646Z,5.13
2023-09-13T13:13:34.605Z,5.20
2023-09-13T13:16:06.814Z,4.90
2023-09-13T13:18:43.713Z,5.43
2023-09-13T13:21:24.891Z,5.27
2023-09-13T13:23:56.093Z,5.20
2023-09-13T13:26:23.102Z,5.17
2023-09-13T13:28:51.096Z,5.87
2023-09-13T13:31:19.924Z,5.33
2023-09-13T13:33:47.042Z,5.63
2023-09-13T13:36:14.547Z,6.17
2023-09-13T13:38:41.614Z,5.83
2023-09-13T13:41:09.401Z,5.63
2023-09-13T13:43:36.631Z,5.20
2023-09-13T13:46:05.860Z,5.30
2023-09-13T13:48:34.032Z,5.83
2023-09-13T13:51:01.381Z,5.07
2023-09-13T13:53:28.232Z,5.53
2023-09-13T13:55:55.365Z,5.00
2023-09-13T13:58:22.568Z,4.23
2023-09-13T14:00:53.179Z,4.57
2023-09-13T14:03:23.467Z,4.40
2023-09-13T14:05:51.066Z,4.33
2023-09-13T14:08:18.266Z,5.07
2023-09-13T14:10:46.176Z,4.90
2023-09-13T14:13:13.942Z,4.53
2023-09-13T14:15:40.837Z,4.40
2023-09-13T14:18:07.977Z,4.67
2023-09-13T14:20:35.000Z,4.93
2023-09-13T14:23:04.098Z,4.17
2023-09-13T14:25:30.832Z,4.77
2023-09-13T14:28:09.504Z,4.37
2023-09-13T14:30:36.659Z,4.50
2023-09-13T14:33:05.040Z,4.53
2023-09-13T14:35:32.190Z,4.80
2023-09-13T14:37:58.944Z,4.60
2023-09-13T14:40:26.486Z,4.30
2023-09-13T14:42:53.200Z,4.90
2023-09-13T14:45:20.055Z,4.23
2023-09-13T14:47:47.083Z,4.50
2023-09-13T14:50:14.609Z,4.23
2023-09-13T14:52:41.287Z,4.17
2023-09-13T14:55:08.754Z,4.47
2023-09-13T14:57:35.749Z,3.80
2023-09-13T15:00:05.109Z,4.13
2023-09-13T15:02:32.022Z,4.70
2023-09-13T15:04:59.376Z,4.67
2023-09-13T15:07:26.089Z,4.13
2023-09-13T15:09:52.847Z,4.33
2023-09-13T15:12:19.735Z,4.20
2023-09-13T15:14:46.513Z,4.70
2023-09-13T15:17:13.310Z,4.17
2023-09-13T15:19:40.037Z,4.60
2023-09-13T15:22:07.092Z,5.30
2023-09-13T15:24:34.398Z,4.40
2023-09-13T15:27:01.483Z,5.00
2023-09-13T15:29:28.537Z,5.20
2023-09-13T15:32:11.429Z,4.50
2023-09-13T15:34:39.112Z,4.53
2023-09-13T15:37:05.880Z,4.60
2023-09-13T15:39:32.680Z,4.63
2023-09-13T15:41:59.401Z,5.70
2023-09-13T15:44:26.136Z,5.00
2023-09-13T15:46:52.887Z,5.00
2023-09-13T15:49:21.257Z,5.00
2023-09-13T15:51:48.398Z,5.53
2023-09-13T15:54:15.187Z,5.30
2023-09-13T15:56:41.949Z,5.03
2023-09-13T15:59:08.639Z,4.97
2023-09-13T16:01:35.566Z,5.33
2023-09-13T16:04:02.489Z,5.30
2023-09-13T16:06:29.557Z,5.10
2023-09-13T16:08:57.023Z,5.80
2023-09-13T16:11:23.876Z,5.30
2023-09-13T16:13:50.909Z,5.50
2023-09-13T16:16:18.203Z,6.23
2023-09-13T16:18:45.253Z,5.67
2023-09-13T16:21:12.252Z,5.60
2023-09-13T16:23:38.949Z,5.77
2023-09-13T16:26:06.728Z,7.30
2023-09-13T16:28:33.537Z,7.20
2023-09-13T16:31:00.484Z,5.70
2023-09-13T16:33:27.479Z,6.20
2023-09-13T16:35:54.219Z,6.37
2023-09-13T16:38:21.096Z,6.60
2023-09-13T16:40:47.836Z,6.57
2023-09-13T16:43:14.583Z,6.10
2023-09-13T16:45:41.378Z,6.27
2023-09-13T16:48:19.654Z,6.00
2023-09-13T16:50:50.697Z,6.60
2023-09-13T16:53:17.360Z,5.33
2023-09-13T16:55:44.071Z,6.13
2023-09-13T16:58:10.840Z,5.90
2023-09-13T17:00:37.538Z,5.40
2023-09-13T17:03:04.420Z,6.10
2023-09-13T17:05:31.211Z,5.90
2023-09-13T17:07:57.881Z,5.83
2023-09-13T17:10:24.690Z,6.23
2023-09-13T17:12:51.436Z,5.93
2023-09-13T17:15:18.226Z,6.00
2023-09-13T17:17:44.926Z,6.07
2023-09-13T17:20:11.810Z,6.03
2023-09-13T17:22:38.491Z,6.57
2023-09-13T17:25:05.431Z,6.10
2023-09-13T17:27:32.282Z,6.30
2023-09-13T17:29:59.006Z,6.43
2023-09-13T17:32:25.717Z,6.10
2023-09-13T17:34:52.464Z,6.03
2023-09-13T17:37:19.350Z,6.50
2023-09-13T17:39:46.241Z,6.30
2023-09-13T17:42:12.950Z,6.30
2023-09-13T17:44:39.643Z,5.70
2023-09-13T17:47:07.455Z,6.53
2023-09-13T17:49:34.537Z,6.47
2023-09-13T17:52:01.319Z,6.77
2023-09-13T17:54:28.065Z,6.13
2023-09-13T17:56:54.810Z,6.67
2023-09-13T17:59:21.597Z,6.57
2023-09-13T18:01:48.397Z,6.30
2023-09-13T18:04:15.188Z,5.97
2023-09-13T18:06:42.167Z,6.40
2023-09-13T18:09:08.877Z,7.37
2023-09-13T18:11:35.577Z,6.73
2023-09-13T18:14:03.147Z,7.10
2023-09-13T18:16:30.566Z,7.23
2023-09-13T18:18:57.899Z,6.40
2023-09-13T18:21:24.756Z,6.53
2023-09-13T18:23:51.514Z,6.40
2023-09-13T18:26:18.502Z,6.63
2023-09-13T18:28:46.599Z,7.10
2023-09-13T18:31:13.946Z,6.83
2023-09-13T18:33:40.913Z,7.53
2023-09-13T18:36:07.972Z,7.07
2023-09-13T18:38:35.284Z,7.00
2023-09-13T18:41:02.370Z,7.00
2023-09-13T18:43:29.070Z,6.80
2023-09-13T18:45:59.770Z,6.57
2023-09-13T18:48:26.558Z,7.67
2023-09-13T18:50:53.921Z,7.10
2023-09-13T18:53:20.620Z,6.67
2023-09-13T18:55:47.298Z,6.97
2023-09-13T18:58:16.397Z,7.20
2023-09-13T19:00:43.266Z,6.60
2023-09-13T19:03:10.188Z,6.60
2023-09-13T19:05:38.539Z,6.00
2023-09-13T19:08:08.605Z,6.70
2023-09-13T19:10:35.310Z,6.57
2023-09-13T19:13:02.089Z,7.23
2023-09-13T19:15:28.888Z,6.90
2023-09-13T19:17:55.718Z,7.40
2023-09-13T19:20:23.697Z,7.13
2023-09-13T19:22:50.603Z,7.37
2023-09-13T19:25:17.413Z,7.47
2023-09-13T19:27:44.248Z,6.70
2023-09-13T19:30:11.144Z,6.73
2023-09-13T19:32:37.975Z,7.67
2023-09-13T19:35:04.839Z,7.13
2023-09-13T19:37:31.608Z,6.47
2023-09-13T19:40:00.858Z,6.63
2023-09-13T19:42:29.104Z,5.80
2023-09-13T19:44:55.795Z,5.60
2023-09-13T19:47:22.533Z,5.67
2023-09-13T19:49:49.198Z,5.40
2023-09-13T19:52:17.645Z,5.43
2023-09-13T19:54:45.628Z,5.27
2023-09-13T19:57:15.117Z,5.40
2023-09-13T19:59:41.861Z,4.90
2023-09-13T20:02:08.637Z,5.30
2023-09-13T20:04:35.393Z,5.00
2023-09-13T20:07:02.158Z,5.17
2023-09-13T20:09:30.748Z,4.60
2023-09-13T20:12:01.330Z,4.70
2023-09-13T20:14:28.009Z,5.20
2023-09-13T20:16:54.887Z,4.90
2023-09-13T20:19:21.604Z,5.17
2023-09-13T20:21:48.261Z,4.73
2023-09-13T20:24:14.985Z,4.87
2023-09-13T20:26:41.742Z,4.57
2023-09-13T20:29:08.500Z,5.03
2023-09-13T20:31:35.284Z,5.00
2023-09-13T20:34:02.197Z,5.20
2023-09-13T20:36:28.996Z,4.90
2023-09-13T20:38:55.717Z,5.50
2023-09-13T20:41:22.425Z,5.10
2023-09-13T20:43:49.111Z,4.97
2023-09-13T20:46:15.910Z,4.73
2023-09-13T20:48:42.759Z,4.40
2023-09-13T20:51:09.479Z,4.70
2023-09-13T20:53:36.224Z,5.20
2023-09-13T20:56:02.932Z,4.90
2023-09-13T20:58:29.600Z,5.20
2023-09-13T21:00:56.388Z,5.00
2023-09-13T21:03:23.289Z,5.07
2023-09-13T21:05:54.359Z,4.83
2023-09-13T21:08:21.015Z,5.67
2023-09-13T21:10:47.747Z,5.33
2023-09-13T21:13:14.428Z,5.70
2023-09-13T21:15:41.142Z,5.50
2023-09-13T21:18:07.859Z,5.30
2023-09-13T21:20:34.810Z,5.13
2023-09-13T21:23:02.651Z,5.20
2023-09-13T21:25:29.373Z,4.63
2023-09-13T21:27:56.165Z,4.83
2023-09-13T21:30:23.104Z,5.80
2023-09-13T21:32:49.953Z,5.47
2023-09-13T21:35:16.773Z,5.50
2023-09-13T21:37:43.446Z,6.17
2023-09-13T21:40:11.753Z,5.83
2023-09-13T21:42:38.568Z,5.80
2023-09-13T21:45:05.621Z,5.30
2023-09-13T21:47:32.422Z,5.77
2023-09-13T21:49:59.172Z,5.50
2023-09-13T21:52:26.119Z,5.63
2023-09-13T21:54:52.947Z,5.80
2023-09-13T21:57:22.626Z,5.87
2023-09-13T21:59:49.618Z,5.70
2023-09-13T22:02:16.442Z,5.87
2023-09-13T22:04:43.397Z,6.20
2023-09-13T22:07:10.594Z,6.00
2023-09-13T22:09:37.707Z,5.40
2023-09-13T22:12:05.675Z,6.27
2023-09-13T22:14:32.725Z,5.43
2023-09-13T22:17:02.299Z,6.40
2023-09-13T22:19:29.091Z,6.60
2023-09-13T22:21:56.395Z,6.30
2023-09-13T22:24:25.666Z,7.00
2023-09-13T22:26:53.063Z,7.30
2023-09-13T22:29:19.814Z,8.13
2023-09-13T22:31:46.604Z,14.20
2023-09-13T22:34:13.473Z,11.60
2023-09-13T22:36:40.309Z,10.77
2023-09-13T22:39:10.654Z,7.93
2023-09-13T22:41:40.454Z,7.43
2023-09-13T22:44:07.225Z,7.00
2023-09-13T22:46:34.074Z,7.27
2023-09-13T22:49:01.208Z,7.33
2023-09-13T22:51:28.199Z,7.17
2023-09-13T22:53:56.991Z,6.90
2023-09-13T22:56:24.052Z,6.67
2023-09-13T22:58:50.882Z,7.10
2023-09-13T23:01:17.636Z,7.57
2023-09-13T23:03:46.630Z,6.70
2023-09-13T23:06:14.191Z,7.43
2023-09-13T23:08:41.156Z,6.67
2023-09-13T23:11:08.014Z,6.67
2023-09-13T23:13:35.273Z,6.53
2023-09-13T23:16:05.130Z,6.63
2023-09-13T23:18:33.110Z,6.60
2023-09-13T23:21:00.725Z,6.40
2023-09-13T23:23:27.827Z,7.07
2023-09-13T23:26:05.224Z,7.17
2023-09-13T23:28:32.309Z,6.97
2023-09-13T23:31:03.445Z,7.03
2023-09-13T23:33:30.474Z,6.97
2023-09-13T23:35:57.182Z,7.30
2023-09-13T23:38:23.873Z,6.73
2023-09-13T23:40:51.116Z,7.30
2023-09-13T23:43:17.792Z,6.40
2023-09-13T23:45:45.582Z,6.70
2023-09-13T23:48:12.330Z,7.23
2023-09-13T23:50:38.992Z,6.73
2023-09-13T23:53:05.724Z,7.50
2023-09-13T23:55:32.385Z,7.23
2023-09-13T23:57:59.146Z,6.63
